Language selection

My Weather Profile Weather Topics  | 

Northeast Gulf: Past 24 Hour Conditions

 

Cartwright Airport

08:00 AM AST 23 January 2022
Disclaimer

This table is a summary of hourly weather conditions for the past 24 hours.
Please note that these observations might not always be representative of weather conditions over their associated marine area.

Date / Time
(AST)
Wind(knots) Conditions Visibility(km) Pressure(kPa) Air tempC) Relative humidity(%) Dew pointC) Wind Chill
23 January 2022
8:00 W 9 gust 15 Mostly Cloudy 16 101.2 -14 75 -17 -22
7:00 SW 13 gust 20 Cloudy 16 101.2 -14 68 -18 -23
6:00 SSW 13 gust 23 Cloudy 16 101.2 -14 65 -19 -24
5:00 SSW 17 gust 24 Cloudy 16 101.3 -14 65 -19 -25
4:00 SSW 14 gust 22 Cloudy 16 101.3 -14 66 -19 -25
3:00 SW 13 gust 20 Cloudy 16 101.4 -14 66 -19 -24
2:00 SSW 17 gust 26 Cloudy 16 101.5 -14 66 -19 -25
1:00 SSW 15 gust 21 Clear 16 101.5 -15 67 -19 -25
0:00 SW 16 gust 28 Clear 16 101.6 -14 65 -19 -24
22 January 2022
23:00 SSW 17 gust 26 Clear 16 101.7 -13 65 -18 -24
22:00 SSW 17 gust 33 Clear 16 101.7 -13 67 -18 -24
21:00 SSW 19 gust 29 Clear 16 101.7 -13 67 -17 -24
20:00 SSW 12 gust 22 Clear 16 101.8 -12 66 -17 -21
19:00 SSW 8 gust 17 Clear 16 101.8 -12 68 -16 -19
18:00 SSW 9 gust 17 Clear 16 101.8 -12 65 -17 -19
17:00 SSW 11 gust 21 Clear 16 101.8 -11 62 -17 -20
16:00 SSW 12 gust 18 Sunny 16 101.8 -12 65 -17 -21
15:00 SSW 15 gust 27 Mainly Sunny 16 101.9 -12 63 -18 -22
14:00 SSW 17 gust 28 Partly Cloudy 16 101.8 -13 62 -19 -24
13:00 SW 14 gust 24 Sunny 16 101.9 -15 64 -20 -25
12:00 SW 20 gust 27 Sunny 16 102.0 -17 60 -23 -29
11:00 SW 18 gust 27 Mainly Sunny 16 102.1 -19 64 -24 -31
10:00 SSW 14 gust 24 Light Snow 16 102.1 -20 64 -25 -32
9:00 SSW 14 gust 22 Light Snow 16 102.2 -22 66 -27 -35
8:00 SSW 13 gust 20 Sunny 16 102.2 -25 73 -28 -37

Zoom-in to make a selection

Map of Atlantic - Newfoundland marine weather areas Banquereau - 44139 East Chedabucto Bay - 44488 West Chedabucto Bay - 44489 Blanc-Sablon Airport Cap Whittle Chevery Natashquan Airport Heath Point Îles de la Madeleine Airport Miscou Island Eskasoni (First Nations) Grand Étang Ingonish Beach North Mountain St.Paul Island J.A. Douglas McCurdy Sydney Airport Charlottetown Airport East Point North Cape Argentia Bonavista Burgeo Cape Race Corner Brook Daniel's Harbour Englee Ferolle Point La Scie Port aux Basques Rocky Harbour Sagona Island St. Anthony Airport St. John's Int'l Airport St. Lawrence Stephenville Airport Twillingate Winterland Branch Hill Wreckhouse Grates Cove Pool's Island Marticot Island Long Pond Cartwright Airport Mary's Harbour
Legend:
buoy Buoy
land station Land Station

Atlantic - Newfoundland Area

Another Region

What we are doing

Features

Hello Weather

Hello Weather: our upgraded telephone weather service is here. 1-833-794-3556 or 1-833-79HELLO.

Date modified: